Time;durP1;ratioP1;P1;durP2;ratioP2;P2;SDS_P1;SDS_P2;PMS_P1;PMS_P2;Temp;Humidity;BMP_temperature;BMP_pressure;BME280_temperature;BME280_humidity;BME280_pressure;Samples;Min_cycle;Max_cycle;Signal;HPM_P1;HPM_P2
2024/03/22 00:00:48;;;;;;;34.10;24.13;;;;;;;;;;5069099;28;20052;-59
2024/03/22 00:03:14;;;;;;;36.88;24.08;;;;;;;;;;5064933;28;20056;-59
2024/03/22 00:05:42;;;;;;;31.98;23.15;;;;;;;;;;5053477;28;20466;-58
2024/03/22 00:08:09;;;;;;;32.25;22.88;;;;;;;;;;5071074;28;20048;-59
2024/03/22 00:10:36;;;;;;;33.75;23.55;;;;;;;;;;5062937;28;20048;-59
2024/03/22 00:13:01;;;;;;;35.33;24.58;;;;;;;;;;5057478;28;20049;-59
2024/03/22 00:15:28;;;;;;;33.60;24.40;;;;;;;;;;5053138;28;20053;-59
2024/03/22 00:17:54;;;;;;;34.75;23.83;;;;;;;;;;5069517;28;20055;-59
2024/03/22 00:20:21;;;;;;;34.17;23.80;;;;;;;;;;5060071;28;20045;-59
2024/03/22 00:22:48;;;;;;;36.53;24.00;;;;;;;;;;5058372;28;20048;-59
2024/03/22 00:25:15;;;;;;;35.80;23.42;;;;;;;;;;5072220;28;20055;-59
2024/03/22 00:27:41;;;;;;;34.22;24.50;;;;;;;;;;5066949;28;20049;-59
2024/03/22 00:30:08;;;;;;;32.05;22.85;;;;;;;;;;5052840;28;20392;-59
2024/03/22 00:32:34;;;;;;;31.83;21.65;;;;;;;;;;5066329;28;20059;-59
2024/03/22 00:35:01;;;;;;;31.88;21.70;;;;;;;;;;5066087;28;20049;-59
2024/03/22 00:37:27;;;;;;;31.33;21.27;;;;;;;;;;5068474;28;20049;-59
2024/03/22 00:39:56;;;;;;;32.85;22.70;;;;;;;;;;5061675;28;20112;-59
2024/03/22 00:42:21;;;;;;;32.92;23.90;;;;;;;;;;5060151;28;20063;-58
2024/03/22 00:44:48;;;;;;;33.38;22.88;;;;;;;;;;5061244;28;20478;-59
2024/03/22 00:47:14;;;;;;;33.22;24.10;;;;;;;;;;5064541;28;20053;-58
2024/03/22 00:49:41;;;;;;;34.33;23.20;;;;;;;;;;5065158;28;20102;-60
2024/03/22 00:52:07;;;;;;;35.13;23.90;;;;;;;;;;5072775;28;20505;-59
2024/03/22 00:54:34;;;;;;;31.45;22.38;;;;;;;;;;5070288;28;20044;-59
2024/03/22 00:57:01;;;;;;;30.75;22.42;;;;;;;;;;5053175;28;20060;-59
2024/03/22 00:59:28;;;;;;;34.97;23.58;;;;;;;;;;5052896;28;20060;-59
2024/03/22 01:01:54;;;;;;;34.97;22.98;;;;;;;;;;5054270;28;20083;-59
2024/03/22 01:04:20;;;;;;;33.70;23.38;;;;;;;;;;5052678;28;20053;-59
2024/03/22 01:06:46;;;;;;;32.00;22.25;;;;;;;;;;5057994;28;20049;-59
2024/03/22 01:09:13;;;;;;;34.13;23.08;;;;;;;;;;5072551;28;20462;-59
2024/03/22 01:11:40;;;;;;;33.50;23.27;;;;;;;;;;5072053;28;20517;-60
2024/03/22 01:14:08;;;;;;;35.25;22.55;;;;;;;;;;5072446;28;20071;-60
2024/03/22 01:16:34;;;;;;;30.40;22.08;;;;;;;;;;5070365;28;20056;-60
2024/03/22 01:19:00;;;;;;;34.72;21.52;;;;;;;;;;5052010;28;20052;-60
2024/03/22 01:21:26;;;;;;;30.60;21.80;;;;;;;;;;5052505;28;20056;-60
2024/03/22 01:23:53;;;;;;;34.22;22.52;;;;;;;;;;5066305;28;20059;-60
2024/03/22 01:26:19;;;;;;;33.58;23.13;;;;;;;;;;5072149;28;20052;-59
2024/03/22 01:28:47;;;;;;;35.15;22.75;;;;;;;;;;5067497;28;20045;-61
2024/03/22 01:31:14;;;;;;;34.13;22.33;;;;;;;;;;5052105;28;20045;-61
2024/03/22 01:33:41;;;;;;;34.38;23.65;;;;;;;;;;5051930;28;20056;-59
2024/03/22 01:36:07;;;;;;;32.72;22.45;;;;;;;;;;5051456;28;20048;-59
2024/03/22 01:38:33;;;;;;;34.38;22.00;;;;;;;;;;5065677;28;20452;-58
2024/03/22 01:40:59;;;;;;;31.02;22.02;;;;;;;;;;5071727;28;20083;-59
2024/03/22 01:43:26;;;;;;;33.28;22.70;;;;;;;;;;5072314;28;20049;-59
2024/03/22 01:45:52;;;;;;;37.75;23.30;;;;;;;;;;5053991;28;20418;-59
2024/03/22 01:48:20;;;;;;;31.92;20.88;;;;;;;;;;5049626;28;20128;-58
2024/03/22 01:50:46;;;;;;;31.13;21.45;;;;;;;;;;5032011;28;20064;-58
2024/03/22 01:53:13;;;;;;;31.63;20.58;;;;;;;;;;5048322;28;20072;-59
2024/03/22 01:55:39;;;;;;;31.17;22.02;;;;;;;;;;5051150;28;20053;-59
2024/03/22 01:58:06;;;;;;;29.27;20.98;;;;;;;;;;5067096;28;20054;-59
2024/03/22 02:00:32;;;;;;;32.53;21.70;;;;;;;;;;5054137;28;20049;-59
2024/03/22 02:02:58;;;;;;;33.97;21.85;;;;;;;;;;5049978;28;20124;-59
2024/03/22 02:05:26;;;;;;;33.10;21.60;;;;;;;;;;5054053;28;20056;-59
2024/03/22 02:07:53;;;;;;;30.48;21.00;;;;;;;;;;5054249;28;20474;-59
2024/03/22 02:10:18;;;;;;;32.67;21.55;;;;;;;;;;5054777;28;20536;-59
2024/03/22 02:12:45;;;;;;;32.03;20.92;;;;;;;;;;5054911;28;20048;-59
2024/03/22 02:15:11;;;;;;;30.98;20.65;;;;;;;;;;5053461;28;20049;-58
2024/03/22 02:17:38;;;;;;;33.40;22.48;;;;;;;;;;5039224;28;20075;-59
2024/03/22 02:20:04;;;;;;;30.92;20.05;;;;;;;;;;5034844;28;20068;-59
2024/03/22 02:22:33;;;;;;;29.92;20.15;;;;;;;;;;5044372;28;20063;-61
2024/03/22 02:25:00;;;;;;;32.67;20.85;;;;;;;;;;5055081;28;20053;-58
2024/03/22 02:27:27;;;;;;;27.38;20.20;;;;;;;;;;5065139;28;20487;-59
2024/03/22 02:29:52;;;;;;;31.30;21.27;;;;;;;;;;5050083;28;20053;-59
2024/03/22 02:32:19;;;;;;;28.67;19.73;;;;;;;;;;5044805;28;20081;-59
2024/03/22 02:34:45;;;;;;;27.27;18.88;;;;;;;;;;5044884;28;20049;-59
2024/03/22 02:37:12;;;;;;;28.45;19.40;;;;;;;;;;5058473;28;20454;-59
2024/03/22 02:39:37;;;;;;;32.08;20.65;;;;;;;;;;5042687;28;20430;-59
2024/03/22 02:42:06;;;;;;;29.27;20.30;;;;;;;;;;5051020;28;20045;-59
2024/03/22 02:44:32;;;;;;;28.50;19.63;;;;;;;;;;5054423;28;20071;-59
2024/03/22 02:46:58;;;;;;;26.88;19.27;;;;;;;;;;5046489;28;20479;-60
2024/03/22 02:49:24;;;;;;;29.67;21.17;;;;;;;;;;5049517;28;20052;-58
2024/03/22 02:51:51;;;;;;;30.50;20.85;;;;;;;;;;5054003;28;20049;-59
2024/03/22 02:54:17;;;;;;;28.33;19.48;;;;;;;;;;5042630;28;20053;-61
2024/03/22 02:56:44;;;;;;;29.40;19.92;;;;;;;;;;5060155;28;20048;-59
2024/03/22 02:59:11;;;;;;;27.65;20.35;;;;;;;;;;5052026;28;20068;-59
2024/03/22 03:01:38;;;;;;;27.95;20.10;;;;;;;;;;5047441;28;20514;-59
2024/03/22 03:04:04;;;;;;;30.92;20.98;;;;;;;;;;5054880;28;20056;-59
2024/03/22 03:06:30;;;;;;;31.63;20.27;;;;;;;;;;5054204;28;20344;-59
2024/03/22 03:08:56;;;;;;;31.88;20.50;;;;;;;;;;5054238;28;20041;-59
2024/03/22 03:11:23;;;;;;;30.40;20.02;;;;;;;;;;5037573;28;20049;-59
2024/03/22 03:13:49;;;;;;;28.00;19.48;;;;;;;;;;5055987;28;20049;-59
2024/03/22 03:16:17;;;;;;;29.75;19.70;;;;;;;;;;5040686;28;20420;-59
2024/03/22 03:18:43;;;;;;;28.85;19.60;;;;;;;;;;5043251;28;20488;-59
2024/03/22 03:21:09;;;;;;;28.85;19.15;;;;;;;;;;5035488;28;20061;-59
2024/03/22 03:23:35;;;;;;;29.30;20.23;;;;;;;;;;5052519;28;20048;-59
2024/03/22 03:26:02;;;;;;;29.23;19.90;;;;;;;;;;5054251;28;20056;-59
2024/03/22 03:28:28;;;;;;;29.33;19.83;;;;;;;;;;5048899;28;20042;-58
2024/03/22 03:30:55;;;;;;;24.65;17.73;;;;;;;;;;5034115;28;20060;-59
2024/03/22 03:33:22;;;;;;;30.42;19.83;;;;;;;;;;5064402;28;20053;-59
2024/03/22 03:35:49;;;;;;;26.42;19.15;;;;;;;;;;5048177;28;20054;-59
2024/03/22 03:38:14;;;;;;;31.08;19.58;;;;;;;;;;5052874;28;20049;-59
2024/03/22 03:40:41;;;;;;;28.25;19.55;;;;;;;;;;5045817;28;20049;-59
2024/03/22 03:43:07;;;;;;;28.20;19.55;;;;;;;;;;5056948;28;20505;-59
2024/03/22 03:45:37;;;;;;;28.35;19.67;;;;;;;;;;5060848;28;20063;-59
2024/03/22 03:48:02;;;;;;;;;;;;;;;;;;5084267;28;20052;-59
2024/03/22 03:50:30;;;;;;;30.25;19.52;;;;;;;;;;5072635;28;19944;-59
2024/03/22 03:52:56;;;;;;;31.75;20.65;;;;;;;;;;5073578;28;20048;-58
2024/03/22 03:55:23;;;;;;;29.30;18.65;;;;;;;;;;5071936;28;20044;-59
2024/03/22 03:57:49;;;;;;;25.08;18.45;;;;;;;;;;5073995;28;20397;-59
2024/03/22 04:00:16;;;;;;;27.75;19.35;;;;;;;;;;5066424;28;20060;-59
2024/03/22 04:02:42;;;;;;;28.50;19.10;;;;;;;;;;5079005;28;20055;-59
2024/03/22 04:05:09;;;;;;;29.20;20.15;;;;;;;;;;5059201;28;20045;-59
2024/03/22 04:07:36;;;;;;;25.80;18.67;;;;;;;;;;5056511;28;20123;-59
2024/03/22 04:10:03;;;;;;;32.63;19.83;;;;;;;;;;5067802;28;20045;-59
2024/03/22 04:12:29;;;;;;;28.00;19.13;;;;;;;;;;5065929;28;20063;-59
2024/03/22 04:14:55;;;;;;;29.25;19.15;;;;;;;;;;5072733;28;20410;-59
2024/03/22 04:17:21;;;;;;;28.15;18.77;;;;;;;;;;5079831;28;20056;-58
2024/03/22 04:19:50;;;;;;;26.88;18.73;;;;;;;;;;5076902;28;20375;-58
2024/03/22 04:22:16;;;;;;;25.77;18.73;;;;;;;;;;5053114;28;20502;-58
2024/03/22 04:24:44;;;;;;;27.63;19.33;;;;;;;;;;5052177;28;20059;-59
2024/03/22 04:27:10;;;;;;;27.25;19.58;;;;;;;;;;5064019;28;20056;-59
2024/03/22 04:29:36;;;;;;;26.75;18.58;;;;;;;;;;5082123;28;20044;-58
2024/03/22 04:32:02;;;;;;;27.25;19.10;;;;;;;;;;5060198;28;20477;-58
2024/03/22 04:34:29;;;;;;;27.17;18.42;;;;;;;;;;5071672;28;20064;-58
2024/03/22 04:36:56;;;;;;;28.67;20.00;;;;;;;;;;5054249;28;20053;-59
2024/03/22 04:39:24;;;;;;;27.60;18.75;;;;;;;;;;5071458;28;20052;-58
2024/03/22 04:41:52;;;;;;;26.13;18.63;;;;;;;;;;5054058;28;20059;-59
2024/03/22 04:44:19;;;;;;;28.55;19.38;;;;;;;;;;5082688;28;20071;-59
2024/03/22 04:46:44;;;;;;;28.35;19.50;;;;;;;;;;5072504;28;20383;-59
2024/03/22 04:49:11;;;;;;;27.77;18.63;;;;;;;;;;5083168;28;20079;-59
2024/03/22 04:51:37;;;;;;;27.13;17.85;;;;;;;;;;5055159;28;20501;-59
2024/03/22 04:54:04;;;;;;;27.13;18.30;;;;;;;;;;5052618;28;20052;-59
2024/03/22 04:56:30;;;;;;;24.75;17.75;;;;;;;;;;5052743;28;20056;-59
2024/03/22 04:58:58;;;;;;;26.58;18.33;;;;;;;;;;5076544;28;20048;-60
2024/03/22 05:01:24;;;;;;;26.05;17.77;;;;;;;;;;5060769;28;20060;-60
2024/03/22 05:03:51;;;;;;;25.88;18.13;;;;;;;;;;5068202;28;20048;-60
2024/03/22 05:06:17;;;;;;;23.65;17.73;;;;;;;;;;5060494;28;20060;-59
2024/03/22 05:08:45;;;;;;;24.50;17.25;;;;;;;;;;5068378;28;20058;-60
2024/03/22 05:11:11;;;;;;;24.23;16.42;;;;;;;;;;5062847;28;20483;-60
2024/03/22 05:13:39;;;;;;;23.90;17.13;;;;;;;;;;5064686;28;20052;-60
2024/03/22 05:16:06;;;;;;;22.55;16.95;;;;;;;;;;5066055;28;20048;-60
2024/03/22 05:18:33;;;;;;;25.33;17.40;;;;;;;;;;5073820;28;20063;-60
2024/03/22 05:20:59;;;;;;;25.50;16.95;;;;;;;;;;5060767;28;20060;-60
2024/03/22 05:23:26;;;;;;;23.02;16.77;;;;;;;;;;5063193;28;20124;-60
2024/03/22 05:25:51;;;;;;;22.02;15.70;;;;;;;;;;5063574;28;20128;-60
2024/03/22 05:28:18;;;;;;;23.45;15.82;;;;;;;;;;5071819;28;20097;-60
2024/03/22 05:30:44;;;;;;;22.45;16.08;;;;;;;;;;5080385;28;20059;-59
2024/03/22 05:33:12;;;;;;;17.95;14.32;;;;;;;;;;5073844;28;20043;-60
2024/03/22 05:35:38;;;;;;;21.17;15.40;;;;;;;;;;5081192;28;20394;-60
2024/03/22 05:38:05;;;;;;;22.58;15.80;;;;;;;;;;5054684;28;20077;-60
2024/03/22 05:40:31;;;;;;;23.73;16.52;;;;;;;;;;5074344;28;20044;-59
2024/03/22 05:42:57;;;;;;;18.90;13.95;;;;;;;;;;5083449;28;20048;-62
2024/03/22 05:45:23;;;;;;;20.35;14.63;;;;;;;;;;5090882;28;20063;-60
2024/03/22 05:47:50;;;;;;;21.13;14.90;;;;;;;;;;5077259;28;20052;-60
2024/03/22 05:50:17;;;;;;;19.85;14.10;;;;;;;;;;5070477;28;20060;-60
2024/03/22 05:52:44;;;;;;;19.30;13.77;;;;;;;;;;5075442;28;20052;-60
2024/03/22 05:55:10;;;;;;;20.13;15.18;;;;;;;;;;5095953;28;20052;-60
2024/03/22 05:57:37;;;;;;;22.20;14.27;;;;;;;;;;5061109;28;20106;-60
2024/03/22 06:00:03;;;;;;;17.88;13.30;;;;;;;;;;5080439;28;20067;-60
2024/03/22 06:02:29;;;;;;;17.58;13.25;;;;;;;;;;5066493;28;20051;-60
2024/03/22 06:04:56;;;;;;;18.30;13.30;;;;;;;;;;5077600;28;20052;-60
2024/03/22 06:07:25;;;;;;;20.48;11.93;;;;;;;;;;5064973;28;20433;-59
2024/03/22 06:09:52;;;;;;;18.58;13.82;;;;;;;;;;5061946;28;20056;-59
2024/03/22 06:12:19;;;;;;;17.27;12.57;;;;;;;;;;5055805;28;20049;-59
2024/03/22 06:14:46;;;;;;;16.90;11.75;;;;;;;;;;5056747;28;20053;-58
2024/03/22 06:17:13;;;;;;;15.65;11.93;;;;;;;;;;5073833;28;20059;-58
2024/03/22 06:19:39;;;;;;;16.05;11.57;;;;;;;;;;5065534;28;20048;-59
2024/03/22 06:22:06;;;;;;;13.98;10.90;;;;;;;;;;5063596;28;20068;-59
2024/03/22 06:24:33;;;;;;;15.05;11.20;;;;;;;;;;5069518;28;20427;-59
2024/03/22 06:27:00;;;;;;;15.25;10.88;;;;;;;;;;5063328;28;20060;-58
2024/03/22 06:29:26;;;;;;;14.75;10.93;;;;;;;;;;5080785;28;20056;-58
2024/03/22 06:31:52;;;;;;;13.57;11.02;;;;;;;;;;5065443;28;20083;-59
2024/03/22 06:34:18;;;;;;;15.20;10.80;;;;;;;;;;5074535;28;20063;-59
2024/03/22 06:36:45;;;;;;;15.98;11.15;;;;;;;;;;5068464;28;20048;-59
2024/03/22 06:39:11;;;;;;;13.27;9.88;;;;;;;;;;5061617;28;20041;-59
2024/03/22 06:41:39;;;;;;;16.33;10.63;;;;;;;;;;5069761;28;20052;-59
2024/03/22 06:44:05;;;;;;;14.63;10.38;;;;;;;;;;5059111;28;20060;-59
2024/03/22 06:46:32;;;;;;;14.68;10.82;;;;;;;;;;5063031;28;20104;-60
2024/03/22 06:48:57;;;;;;;14.15;10.70;;;;;;;;;;5074285;28;20047;-58
2024/03/22 06:51:24;;;;;;;13.35;10.52;;;;;;;;;;5073326;28;20423;-60
2024/03/22 06:53:51;;;;;;;14.48;10.80;;;;;;;;;;5071694;28;20048;-59
2024/03/22 06:56:18;;;;;;;15.50;11.00;;;;;;;;;;5061298;28;20506;-60
2024/03/22 06:58:45;;;;;;;12.63;10.20;;;;;;;;;;5080950;28;20383;-60
2024/03/22 07:01:12;;;;;;;13.82;10.63;;;;;;;;;;5061856;28;20048;-60
2024/03/22 07:03:38;;;;;;;14.25;10.70;;;;;;;;;;5074175;28;20052;-60
2024/03/22 07:06:05;;;;;;;16.88;11.15;;;;;;;;;;5064889;28;20044;-60
2024/03/22 07:08:31;;;;;;;15.35;10.68;;;;;;;;;;5070686;28;20410;-60
2024/03/22 07:10:59;;;;;;;16.85;12.48;;;;;;;;;;5066049;28;20041;-60
2024/03/22 07:13:25;;;;;;;16.90;12.15;;;;;;;;;;5063977;28;20057;-60
2024/03/22 07:15:53;;;;;;;15.20;11.73;;;;;;;;;;5064712;28;20045;-59
2024/03/22 07:18:19;;;;;;;16.42;12.45;;;;;;;;;;5073325;28;20053;-59
2024/03/22 07:20:46;;;;;;;16.35;12.30;;;;;;;;;;5065747;28;20049;-59
2024/03/22 07:23:12;;;;;;;16.77;12.30;;;;;;;;;;5064104;28;20075;-59
2024/03/22 07:25:39;;;;;;;14.23;11.30;;;;;;;;;;5062360;28;20049;-59
2024/03/22 07:28:04;;;;;;;18.50;12.35;;;;;;;;;;5063003;28;20061;-59
2024/03/22 07:30:31;;;;;;;17.15;12.40;;;;;;;;;;5059759;28;20133;-60
2024/03/22 07:32:59;;;;;;;17.63;13.02;;;;;;;;;;5072944;28;20057;-59
2024/03/22 07:35:26;;;;;;;17.27;13.00;;;;;;;;;;5061132;28;20072;-60
2024/03/22 07:37:51;;;;;;;19.92;14.15;;;;;;;;;;5063100;28;20052;-59
2024/03/22 07:40:20;;;;;;;19.80;13.23;;;;;;;;;;5057467;28;20107;-60
2024/03/22 07:42:45;;;;;;;16.67;12.65;;;;;;;;;;5064682;28;20048;-60
2024/03/22 07:45:12;;;;;;;17.75;13.35;;;;;;;;;;5065667;28;20442;-60
2024/03/22 07:47:40;;;;;;;16.13;12.60;;;;;;;;;;5070605;28;20052;-59
2024/03/22 07:50:08;;;;;;;16.83;12.55;;;;;;;;;;5073915;28;20405;-59
2024/03/22 07:52:34;;;;;;;16.65;12.30;;;;;;;;;;5063360;28;20052;-60
2024/03/22 07:55:02;;;;;;;15.55;11.95;;;;;;;;;;5065407;28;20044;-59
2024/03/22 07:57:30;;;;;;;17.65;12.68;;;;;;;;;;5067756;28;20048;-60
2024/03/22 07:59:57;;;;;;;15.05;12.48;;;;;;;;;;5065325;28;20508;-60
2024/03/22 08:02:23;;;;;;;17.48;12.25;;;;;;;;;;5065624;28;20509;-59
2024/03/22 08:04:50;;;;;;;18.48;13.63;;;;;;;;;;5062741;28;20037;-59
2024/03/22 08:07:17;;;;;;;19.15;13.85;;;;;;;;;;5064034;28;20060;-60
2024/03/22 08:09:44;;;;;;;18.90;13.20;;;;;;;;;;5070742;28;20048;-59
2024/03/22 08:12:10;;;;;;;20.75;15.68;;;;;;;;;;5068595;28;20444;-59
2024/03/22 08:14:37;;;;;;;20.30;14.80;;;;;;;;;;5072193;28;20048;-59
2024/03/22 08:17:03;;;;;;;18.00;14.40;;;;;;;;;;5073732;28;20433;-59
2024/03/22 08:19:30;;;;;;;17.08;13.70;;;;;;;;;;5066159;28;20079;-59
2024/03/22 08:21:56;;;;;;;19.88;15.30;;;;;;;;;;5056738;28;20083;-60
2024/03/22 08:24:24;;;;;;;19.55;14.85;;;;;;;;;;5065390;28;20048;-59
2024/03/22 08:26:50;;;;;;;22.35;15.02;;;;;;;;;;5063441;28;20052;-60
2024/03/22 08:29:17;;;;;;;18.88;15.63;;;;;;;;;;5066218;28;20048;-60
2024/03/22 08:31:43;;;;;;;20.35;15.70;;;;;;;;;;5075580;28;20473;-60
2024/03/22 08:34:09;;;;;;;21.00;16.25;;;;;;;;;;5062246;28;20056;-59
2024/03/22 08:36:36;;;;;;;20.10;15.57;;;;;;;;;;5068120;28;20063;-59
2024/03/22 08:39:03;;;;;;;21.05;15.35;;;;;;;;;;5063309;28;20047;-59
2024/03/22 08:41:30;;;;;;;17.83;15.00;;;;;;;;;;5066175;28;20048;-59
2024/03/22 08:43:57;;;;;;;18.48;15.18;;;;;;;;;;5061665;28;20053;-59
2024/03/22 08:46:24;;;;;;;22.00;15.27;;;;;;;;;;5061754;28;20060;-60
2024/03/22 08:48:51;;;;;;;19.25;15.52;;;;;;;;;;5070108;28;20060;-59
2024/03/22 08:51:17;;;;;;;18.13;15.00;;;;;;;;;;5063250;28;20056;-60
2024/03/22 08:53:44;;;;;;;17.90;14.80;;;;;;;;;;5065520;28;20565;-60
2024/03/22 08:56:10;;;;;;;20.02;15.73;;;;;;;;;;5062811;28;20064;-59
2024/03/22 08:58:40;;;;;;;19.50;14.48;;;;;;;;;;5080411;28;20545;-60
2024/03/22 09:01:06;;;;;;;19.38;15.48;;;;;;;;;;5058216;28;20048;-60
2024/03/22 09:03:32;;;;;;;20.85;15.48;;;;;;;;;;5061432;28;20151;-59
2024/03/22 09:05:58;;;;;;;17.33;14.80;;;;;;;;;;5077057;28;20056;-59
2024/03/22 09:08:26;;;;;;;18.10;14.95;;;;;;;;;;5065093;28;20425;-59
2024/03/22 09:10:51;;;;;;;20.00;15.32;;;;;;;;;;5063966;28;20060;-60
2024/03/22 09:13:18;;;;;;;17.85;14.52;;;;;;;;;;5068105;28;20056;-59
2024/03/22 09:15:45;;;;;;;18.35;14.88;;;;;;;;;;5066075;28;20380;-59
2024/03/22 09:18:12;;;;;;;18.35;14.57;;;;;;;;;;5060896;28;20057;-59
2024/03/22 09:20:38;;;;;;;20.33;14.13;;;;;;;;;;5062262;28;20060;-59
2024/03/22 09:23:05;;;;;;;18.55;14.80;;;;;;;;;;5056302;28;20045;-60
2024/03/22 09:25:31;;;;;;;18.30;13.73;;;;;;;;;;5054914;28;20044;-60
2024/03/22 09:27:58;;;;;;;16.48;13.10;;;;;;;;;;5060586;28;20386;-60
2024/03/22 09:30:25;;;;;;;14.50;11.85;;;;;;;;;;5056931;28;20045;-60
2024/03/22 09:32:52;;;;;;;16.35;13.65;;;;;;;;;;5069287;28;20063;-59
2024/03/22 09:35:19;;;;;;;15.70;13.35;;;;;;;;;;5068786;28;20074;-61
2024/03/22 09:37:44;;;;;;;17.35;14.45;;;;;;;;;;5068098;28;20048;-60
2024/03/22 09:40:12;;;;;;;16.52;12.80;;;;;;;;;;5063412;28;20056;-59
2024/03/22 09:42:39;;;;;;;17.75;13.82;;;;;;;;;;5065336;28;20048;-59
2024/03/22 09:45:08;;;;;;;15.38;13.15;;;;;;;;;;5059101;28;20063;-60
2024/03/22 09:47:35;;;;;;;15.48;12.25;;;;;;;;;;5065831;28;20055;-59
2024/03/22 09:50:04;;;;;;;14.20;11.77;;;;;;;;;;5068109;28;20041;-59
2024/03/22 09:52:31;;;;;;;13.20;10.63;;;;;;;;;;5067725;28;20052;-59
2024/03/22 09:54:57;;;;;;;15.02;11.38;;;;;;;;;;5063396;28;20486;-59
2024/03/22 09:57:24;;;;;;;13.93;10.80;;;;;;;;;;5065564;28;20059;-59
2024/03/22 09:59:51;;;;;;;13.85;9.23;;;;;;;;;;5063684;28;20044;-59
2024/03/22 10:02:17;;;;;;;14.45;10.63;;;;;;;;;;5056757;28;20568;-60
2024/03/22 10:04:44;;;;;;;14.98;10.80;;;;;;;;;;5066041;28;20497;-59
2024/03/22 10:07:13;;;;;;;12.50;9.75;;;;;;;;;;5056125;28;20072;-59
2024/03/22 10:09:40;;;;;;;14.40;9.77;;;;;;;;;;5058784;28;20087;-60
2024/03/22 10:12:07;;;;;;;15.18;10.07;;;;;;;;;;5053095;28;20048;-59
2024/03/22 10:14:34;;;;;;;12.80;9.35;;;;;;;;;;5057619;28;20041;-59
2024/03/22 10:17:00;;;;;;;11.07;9.10;;;;;;;;;;5064624;28;20044;-59
2024/03/22 10:19:27;;;;;;;12.32;8.98;;;;;;;;;;5062776;28;20063;-59
2024/03/22 10:21:59;;;;;;;12.18;8.65;;;;;;;;;;5060634;28;20044;-59
2024/03/22 10:24:28;;;;;;;11.32;8.20;;;;;;;;;;5059192;28;20055;-60
2024/03/22 10:26:54;;;;;;;12.40;7.93;;;;;;;;;;5062743;28;20052;-60
2024/03/22 10:29:22;;;;;;;12.48;8.18;;;;;;;;;;5065114;28;20060;-58
2024/03/22 10:31:48;;;;;;;11.93;8.45;;;;;;;;;;5058211;28;20099;-59
2024/03/22 10:34:15;;;;;;;13.88;8.00;;;;;;;;;;5066473;28;20045;-58
2024/03/22 10:36:41;;;;;;;11.18;8.50;;;;;;;;;;5059855;28;20067;-59
2024/03/22 10:39:09;;;;;;;9.00;7.75;;;;;;;;;;5056337;28;20041;-59
2024/03/22 10:41:36;;;;;;;12.45;7.78;;;;;;;;;;5058233;28;20048;-58
2024/03/22 10:44:03;;;;;;;11.15;7.90;;;;;;;;;;5068303;28;20059;-58
2024/03/22 10:46:29;;;;;;;14.13;7.95;;;;;;;;;;5063780;28;20056;-59
2024/03/22 10:48:57;;;;;;;11.65;8.10;;;;;;;;;;5071907;28;20417;-58
2024/03/22 10:51:24;;;;;;;10.95;7.15;;;;;;;;;;5065322;28;20048;-58
2024/03/22 10:53:51;;;;;;;11.98;7.57;;;;;;;;;;5069024;28;20405;-59
2024/03/22 10:56:17;;;;;;;9.00;7.30;;;;;;;;;;5071576;28;20056;-59
2024/03/22 10:58:47;;;;;;;8.88;7.50;;;;;;;;;;5075503;28;20049;-59
2024/03/22 11:01:21;;;;;;;10.18;7.15;;;;;;;;;;5064679;28;20467;-59
2024/03/22 11:03:48;;;;;;;8.50;6.93;;;;;;;;;;5067111;28;20056;-58
2024/03/22 11:06:17;;;;;;;13.13;7.78;;;;;;;;;;5066039;28;20055;-58
2024/03/22 11:08:46;;;;;;;10.18;7.35;;;;;;;;;;5056961;28;20041;-58
2024/03/22 11:11:11;;;;;;;9.00;7.53;;;;;;;;;;5063350;28;20059;-57
2024/03/22 11:13:40;;;;;;;9.93;7.20;;;;;;;;;;5060899;28;20115;-58
2024/03/22 11:16:09;;;;;;;9.98;7.65;;;;;;;;;;5066983;28;20052;-57
2024/03/22 11:18:36;;;;;;;14.70;7.75;;;;;;;;;;5066535;28;20060;-57
2024/03/22 11:21:03;;;;;;;10.68;7.40;;;;;;;;;;5069185;28;20075;-58
2024/03/22 11:23:29;;;;;;;9.23;7.15;;;;;;;;;;5066747;28;20048;-59
2024/03/22 11:25:56;;;;;;;9.00;6.75;;;;;;;;;;5063708;28;20052;-59
2024/03/22 11:28:23;;;;;;;10.25;6.90;;;;;;;;;;5055399;28;20045;-58
2024/03/22 11:30:50;;;;;;;10.43;7.47;;;;;;;;;;5056002;28;20045;-41
2024/03/22 11:33:17;;;;;;;11.23;6.60;;;;;;;;;;5051912;28;20059;-41
2024/03/22 11:35:45;;;;;;;9.73;6.38;;;;;;;;;;5066207;28;20056;-40
2024/03/22 11:38:11;;;;;;;9.35;7.30;;;;;;;;;;5060587;28;20060;-59
2024/03/22 11:40:38;;;;;;;8.40;6.65;;;;;;;;;;5049717;28;20375;-60
2024/03/22 11:43:04;;;;;;;9.95;7.07;;;;;;;;;;5057242;28;20044;-59
2024/03/22 11:45:33;;;;;;;9.20;7.05;;;;;;;;;;5044186;28;20069;-59
2024/03/22 11:48:01;;;;;;;9.50;6.60;;;;;;;;;;5037553;28;20048;-59
2024/03/22 11:50:30;;;;;;;8.87;5.73;;;;;;;;;;5034836;28;20054;-58
2024/03/22 11:52:56;;;;;;;7.00;5.80;;;;;;;;;;5032376;28;20476;-58
2024/03/22 11:55:22;;;;;;;9.35;6.30;;;;;;;;;;5037109;28;20133;-60
2024/03/22 11:57:48;;;;;;;7.72;5.55;;;;;;;;;;5034819;28;20758;-59
2024/03/22 12:00:18;;;;;;;7.38;6.20;;;;;;;;;;5035589;28;20049;-59
2024/03/22 12:02:44;;;;;;;8.07;6.47;;;;;;;;;;5036606;28;20045;-59
2024/03/22 12:05:11;;;;;;;9.45;6.53;;;;;;;;;;5049680;28;20490;-59
2024/03/22 12:07:40;;;;;;;11.02;7.15;;;;;;;;;;5033925;28;20053;-60
2024/03/22 12:10:07;;;;;;;9.13;6.15;;;;;;;;;;5039458;28;20052;-58
2024/03/22 12:12:33;;;;;;;9.80;6.80;;;;;;;;;;5042391;28;20502;-58
2024/03/22 12:15:00;;;;;;;9.88;6.75;;;;;;;;;;5043579;28;20053;-59
2024/03/22 12:17:25;;;;;;;7.95;6.63;;;;;;;;;;5047719;28;20052;-59
2024/03/22 12:19:52;;;;;;;8.07;6.63;;;;;;;;;;5051086;28;20128;-59
2024/03/22 12:22:18;;;;;;;9.63;6.47;;;;;;;;;;5067137;28;20056;-59
2024/03/22 12:24:46;;;;;;;8.68;7.20;;;;;;;;;;5065514;28;20363;-59
2024/03/22 12:27:12;;;;;;;13.23;8.23;;;;;;;;;;5063364;28;20430;-59
2024/03/22 12:29:39;;;;;;;9.93;7.90;;;;;;;;;;5061984;28;20060;-58
2024/03/22 12:32:06;;;;;;;10.82;7.47;;;;;;;;;;5055510;28;20071;-59
2024/03/22 12:34:33;;;;;;;11.73;9.30;;;;;;;;;;5053603;28;20041;-59
2024/03/22 12:36:59;;;;;;;12.90;8.85;;;;;;;;;;5052928;28;20402;-59
2024/03/22 12:39:26;;;;;;;12.63;9.52;;;;;;;;;;5047310;28;20502;-59
2024/03/22 12:41:53;;;;;;;10.73;8.60;;;;;;;;;;5037969;28;20435;-48
2024/03/22 12:44:21;;;;;;;11.77;8.77;;;;;;;;;;5063932;28;20413;-47
2024/03/22 12:46:47;;;;;;;11.10;8.35;;;;;;;;;;5071307;28;20061;-46
2024/03/22 12:49:14;;;;;;;11.10;9.35;;;;;;;;;;5074387;28;20052;-45
2024/03/22 12:51:40;;;;;;;12.70;9.82;;;;;;;;;;5066010;28;20055;-59
2024/03/22 12:54:07;;;;;;;12.57;9.70;;;;;;;;;;5078558;28;20048;-58
2024/03/22 12:56:33;;;;;;;11.18;9.30;;;;;;;;;;5075158;28;20048;-59
2024/03/22 12:59:01;;;;;;;11.15;9.95;;;;;;;;;;5078963;28;20059;-58
2024/03/22 13:01:27;;;;;;;12.90;9.65;;;;;;;;;;5062871;28;20068;-58
2024/03/22 13:03:54;;;;;;;15.30;10.40;;;;;;;;;;5072148;28;20490;-58
2024/03/22 13:06:19;;;;;;;12.25;9.90;;;;;;;;;;5081017;28;20402;-57
2024/03/22 13:08:47;;;;;;;13.77;9.70;;;;;;;;;;5053375;28;20084;-59
2024/03/22 13:11:14;;;;;;;12.40;9.98;;;;;;;;;;5085616;28;20048;-58
2024/03/22 13:13:40;;;;;;;12.75;10.10;;;;;;;;;;5069838;28;20504;-57
2024/03/22 13:16:09;;;;;;;12.50;10.50;;;;;;;;;;5063068;28;20401;-58
2024/03/22 13:18:36;;;;;;;14.13;10.17;;;;;;;;;;5064632;28;20060;-58
2024/03/22 13:21:03;;;;;;;12.88;10.70;;;;;;;;;;5068509;28;20057;-58
2024/03/22 13:23:29;;;;;;;14.52;11.48;;;;;;;;;;5074013;28;20055;-59
2024/03/22 13:25:58;;;;;;;14.35;10.85;;;;;;;;;;5078927;28;20056;-59
2024/03/22 13:28:26;;;;;;;13.93;12.07;;;;;;;;;;5074405;28;20056;-58
2024/03/22 13:30:59;;;;;;;14.02;11.02;;;;;;;;;;5071307;28;20501;-59
2024/03/22 13:33:27;;;;;;;14.85;10.90;;;;;;;;;;5067364;28;20469;-60
2024/03/22 13:35:52;;;;;;;13.85;11.38;;;;;;;;;;5090057;28;20056;-60
2024/03/22 13:38:19;;;;;;;14.68;11.50;;;;;;;;;;5078554;28;20500;-58
2024/03/22 13:40:53;;;;;;;16.00;12.15;;;;;;;;;;5074683;28;20056;-58
2024/03/22 13:43:19;;;;;;;13.38;11.32;;;;;;;;;;5063253;28;20048;-57
2024/03/22 13:45:47;;;;;;;13.93;11.27;;;;;;;;;;5089803;28;20528;-58
2024/03/22 13:48:13;;;;;;;17.25;11.23;;;;;;;;;;5077121;28;20056;-57
2024/03/22 13:50:41;;;;;;;12.63;11.27;;;;;;;;;;5089189;28;20052;-58
2024/03/22 13:53:07;;;;;;;14.75;12.48;;;;;;;;;;5070590;28;20044;-58
2024/03/22 13:55:34;;;;;;;14.70;12.25;;;;;;;;;;5083124;28;20051;-57
2024/03/22 13:57:59;;;;;;;15.50;12.32;;;;;;;;;;5062592;28;20053;-57
2024/03/22 14:00:27;;;;;;;16.17;12.57;;;;;;;;;;5093838;28;20131;-57
2024/03/22 14:02:55;;;;;;;18.33;13.30;;;;;;;;;;5073109;28;20438;-60
2024/03/22 14:05:24;;;;;;;21.25;13.25;;;;;;;;;;5079294;28;20048;-57
2024/03/22 14:07:51;;;;;;;16.10;13.33;;;;;;;;;;5085141;28;20053;-57
2024/03/22 14:10:18;;;;;;;16.55;12.75;;;;;;;;;;5074498;28;20052;-57
2024/03/22 14:12:45;;;;;;;13.77;10.63;;;;;;;;;;5081645;28;20390;-57
2024/03/22 14:15:11;;;;;;;12.63;9.25;;;;;;;;;;5061694;28;20063;-57
2024/03/22 14:17:37;;;;;;;12.85;9.52;;;;;;;;;;5088514;28;20051;-58